createdAt,value
2017-09-05T03:30:56.171Z,14.40
2017-09-05T03:33:23.769Z,14.40
2017-09-05T03:35:51.458Z,14.20
2017-09-05T03:38:19.091Z,14.10
2017-09-05T03:40:46.698Z,14.00
2017-09-05T03:43:14.641Z,14.00
2017-09-05T03:45:42.236Z,14.10
2017-09-05T03:48:09.849Z,14.20
2017-09-05T03:50:37.874Z,14.20
2017-09-05T03:53:05.468Z,14.20
2017-09-05T03:55:33.069Z,14.30
2017-09-05T03:58:00.676Z,14.30
2017-09-05T04:00:28.266Z,14.30
2017-09-05T04:02:56.316Z,14.20
2017-09-05T04:05:23.927Z,14.20
2017-09-05T04:07:51.568Z,14.20
2017-09-05T04:10:19.188Z,14.30
2017-09-05T04:12:46.808Z,14.30
2017-09-05T04:15:14.799Z,14.30
2017-09-05T04:17:42.412Z,14.30
2017-09-05T04:20:10.021Z,14.30
2017-09-05T04:22:37.643Z,14.30
2017-09-05T04:25:05.255Z,14.40
2017-09-05T04:27:33.208Z,14.30
2017-09-05T04:30:01.088Z,14.40
2017-09-05T04:32:28.685Z,14.40
2017-09-05T04:34:56.317Z,14.30
2017-09-05T04:37:23.927Z,14.40
2017-09-05T04:39:52.033Z,14.30
2017-09-05T04:42:19.649Z,14.30
2017-09-05T04:44:47.256Z,14.30
2017-09-05T04:47:15.216Z,14.40
2017-09-05T04:49:42.831Z,14.40
2017-09-05T04:52:10.428Z,14.50
2017-09-05T04:54:38.024Z,14.50
2017-09-05T04:57:05.655Z,14.40
2017-09-05T04:59:33.734Z,14.30
2017-09-05T05:02:01.348Z,14.10
2017-09-05T05:04:28.947Z,14.10
2017-09-05T05:06:56.587Z,14.10
2017-09-05T05:09:24.194Z,14.10
2017-09-05T05:11:52.155Z,14.30
2017-09-05T05:14:19.841Z,14.50
2017-09-05T05:16:48.214Z,14.70
2017-09-05T05:19:15.833Z,14.70
2017-09-05T05:21:43.438Z,14.70
2017-09-05T05:24:12.213Z,14.60
2017-09-05T05:26:39.812Z,14.60
2017-09-05T05:29:07.409Z,14.70
2017-09-05T05:31:35.029Z,14.90
2017-09-05T05:34:02.635Z,15.10
2017-09-05T05:36:30.615Z,15.40
2017-09-05T05:38:58.210Z,15.60
2017-09-05T05:41:25.802Z,15.90
2017-09-05T05:43:53.556Z,16.00
2017-09-05T05:46:21.155Z,16.20
2017-09-05T05:48:49.221Z,16.30
2017-09-05T05:51:16.833Z,16.40
2017-09-05T05:53:44.433Z,16.60
2017-09-05T05:56:12.111Z,16.80
2017-09-05T05:58:39.718Z,16.90
2017-09-05T06:01:07.680Z,16.90
2017-09-05T06:03:35.284Z,16.80
2017-09-05T06:06:02.891Z,16.80
2017-09-05T06:08:30.512Z,17.10
2017-09-05T06:10:58.127Z,17.30
2017-09-05T06:13:26.148Z,17.20
2017-09-05T06:15:53.777Z,17.20
2017-09-05T06:18:21.438Z,17.10
2017-09-05T06:20:49.058Z,17.10
2017-09-05T06:23:16.654Z,17.10
2017-09-05T06:25:44.610Z,17.10
2017-09-05T06:28:12.226Z,17.10
2017-09-05T06:30:39.821Z,17.20
2017-09-05T06:33:07.450Z,17.20
2017-09-05T06:35:35.059Z,17.30
2017-09-05T06:38:03.077Z,17.30
2017-09-05T06:40:30.689Z,17.40
2017-09-05T06:42:58.284Z,17.50
2017-09-05T06:45:25.909Z,17.60
2017-09-05T06:47:53.526Z,17.70
2017-09-05T06:50:21.599Z,17.80
2017-09-05T06:55:23.478Z,17.60
2017-09-05T06:57:51.091Z,17.70
2017-09-05T07:00:18.702Z,17.80
2017-09-05T07:02:46.333Z,17.80
2017-09-05T07:05:13.943Z,17.90
2017-09-05T07:07:41.909Z,18.00
2017-09-05T07:10:09.535Z,18.20
2017-09-05T07:12:37.138Z,18.20
2017-09-05T07:15:05.106Z,18.10
2017-09-05T07:17:32.706Z,18.10
2017-09-05T07:20:00.381Z,18.10
2017-09-05T07:22:28.022Z,18.00
2017-09-05T07:24:55.639Z,18.00
2017-09-05T07:27:24.406Z,18.40
2017-09-05T07:29:52.002Z,18.40
2017-09-05T07:32:19.597Z,18.50
2017-09-05T07:34:47.223Z,18.70
2017-09-05T07:37:14.817Z,18.50
2017-09-05T07:39:42.775Z,18.60
2017-09-05T07:42:10.401Z,18.80
2017-09-05T07:44:38.006Z,18.90
2017-09-05T07:47:05.651Z,19.00
2017-09-05T07:49:33.264Z,18.80
2017-09-05T07:52:01.229Z,19.10
2017-09-05T07:54:28.830Z,19.30
2017-09-05T07:56:56.548Z,19.30
2017-09-05T07:59:24.289Z,19.10
2017-09-05T08:01:51.896Z,19.40
2017-09-05T08:04:19.495Z,19.10
2017-09-05T08:06:47.139Z,18.90
2017-09-05T08:09:14.742Z,19.00
2017-09-05T08:11:42.720Z,19.20
2017-09-05T08:14:10.349Z,19.60
2017-09-05T08:16:37.975Z,19.80
2017-09-05T08:19:06.375Z,20.00
2017-09-05T08:21:33.997Z,19.90
2017-09-05T08:24:01.946Z,20.00
2017-09-05T08:26:29.593Z,20.50
2017-09-05T08:28:57.193Z,20.50
2017-09-05T08:31:24.805Z,20.50
2017-09-05T08:33:52.416Z,20.80
2017-09-05T08:36:20.472Z,20.90
2017-09-05T08:38:48.183Z,21.00
2017-09-05T08:41:15.791Z,21.30
2017-09-05T08:43:43.440Z,21.40
2017-09-05T08:46:11.050Z,21.30
2017-09-05T08:48:38.997Z,21.70
2017-09-05T08:51:06.599Z,21.80
2017-09-05T08:53:34.219Z,21.90
2017-09-05T08:56:02.017Z,21.90
2017-09-05T08:58:29.616Z,21.60
2017-09-05T09:00:57.555Z,21.80
2017-09-05T09:03:25.161Z,21.90
2017-09-05T09:05:52.752Z,21.80
2017-09-05T09:08:20.385Z,22.00
2017-09-05T09:10:47.985Z,22.20
2017-09-05T09:13:15.922Z,22.50
2017-09-05T09:15:43.523Z,22.70
2017-09-05T09:18:11.134Z,23.20
2017-09-05T09:20:38.751Z,23.50
2017-09-05T09:23:06.351Z,23.10
2017-09-05T09:25:34.323Z,23.30
2017-09-05T09:28:01.952Z,23.40
2017-09-05T09:30:29.564Z,23.40
2017-09-05T09:32:57.202Z,23.70
2017-09-05T09:35:24.795Z,23.90
2017-09-05T09:37:52.834Z,24.30
2017-09-05T09:40:20.432Z,24.30
2017-09-05T09:42:48.082Z,25.60
2017-09-05T09:45:15.693Z,26.70
2017-09-05T09:47:43.309Z,28.20
2017-09-05T09:50:11.272Z,28.70
2017-09-05T09:52:38.896Z,27.70
2017-09-05T09:55:06.513Z,26.50
2017-09-05T09:57:34.192Z,25.60
2017-09-05T10:00:01.800Z,25.10
2017-09-05T10:02:29.851Z,24.90
2017-09-05T10:04:57.450Z,24.20
2017-09-05T10:07:25.056Z,25.80
2017-09-05T10:09:52.683Z,28.40
2017-09-05T10:12:20.294Z,30.60
2017-09-05T10:14:48.274Z,32.10
2017-09-05T10:17:15.872Z,30.80
2017-09-05T10:19:43.484Z,30.00
2017-09-05T10:22:11.106Z,30.20
2017-09-05T10:24:38.715Z,30.80
2017-09-05T10:27:06.687Z,30.90
2017-09-05T10:29:34.290Z,29.90
2017-09-05T10:32:01.889Z,28.70
2017-09-05T10:34:29.657Z,27.40
2017-09-05T10:36:57.279Z,27.40
2017-09-05T10:39:25.285Z,29.60
2017-09-05T10:41:52.895Z,33.40
2017-09-05T10:44:20.511Z,35.60
2017-09-05T10:46:48.213Z,36.60
2017-09-05T10:49:15.929Z,37.90
2017-09-05T10:51:43.555Z,35.90
2017-09-05T10:54:11.614Z,32.90
2017-09-05T10:56:39.303Z,30.70
2017-09-05T10:59:06.912Z,29.70
2017-09-05T11:01:34.518Z,29.70
2017-09-05T11:04:02.384Z,28.70
2017-09-05T11:06:30.422Z,27.80
2017-09-05T11:08:58.022Z,27.60
2017-09-05T11:11:25.671Z,27.50
2017-09-05T11:13:53.317Z,28.90
2017-09-05T11:16:20.975Z,29.10
2017-09-05T11:18:49.002Z,28.10
2017-09-05T11:21:16.610Z,28.60
2017-09-05T11:23:44.214Z,27.80
2017-09-05T11:26:12.205Z,27.00
2017-09-05T11:28:39.824Z,26.20
2017-09-05T11:31:07.415Z,25.70
2017-09-05T11:33:35.146Z,25.50
2017-09-05T11:36:02.743Z,27.50
2017-09-05T11:38:30.737Z,29.30
2017-09-05T11:40:58.347Z,30.70
2017-09-05T11:43:25.963Z,31.80
2017-09-05T11:45:53.602Z,32.70
2017-09-05T11:48:21.212Z,35.50
2017-09-05T11:50:49.338Z,38.20
2017-09-05T11:53:16.951Z,39.20
2017-09-05T11:55:44.544Z,41.70
2017-09-05T11:58:12.158Z,40.60
2017-09-05T12:00:39.770Z,38.60
2017-09-05T12:03:07.755Z,35.30
2017-09-05T12:05:35.365Z,32.20
2017-09-05T12:08:02.973Z,30.60
2017-09-05T12:10:31.043Z,29.70
2017-09-05T12:12:58.656Z,29.40
2017-09-05T12:15:26.356Z,28.70
2017-09-05T12:17:54.313Z,29.00
2017-09-05T12:20:21.934Z,29.80
2017-09-05T12:22:49.595Z,30.30
2017-09-05T12:25:17.617Z,29.60
2017-09-05T12:27:45.217Z,29.20
2017-09-05T12:30:13.575Z,29.30
2017-09-05T12:32:41.634Z,29.10
2017-09-05T12:35:09.232Z,28.40
2017-09-05T12:37:36.833Z,27.60
2017-09-05T12:40:04.957Z,27.30
2017-09-05T12:42:32.544Z,27.10
2017-09-05T12:45:00.143Z,27.00
2017-09-05T12:47:27.784Z,27.20
2017-09-05T12:49:55.393Z,27.30
2017-09-05T12:52:23.443Z,27.30
2017-09-05T12:54:51.819Z,28.30
2017-09-05T12:57:19.422Z,28.30
2017-09-05T12:59:47.046Z,27.60
2017-09-05T13:02:14.644Z,27.70
2017-09-05T13:04:42.613Z,27.90
2017-09-05T13:07:10.218Z,27.90
2017-09-05T13:09:37.829Z,27.00
2017-09-05T13:12:05.466Z,26.40
2017-09-05T13:14:33.072Z,26.20
2017-09-05T13:17:01.084Z,26.30
2017-09-05T13:19:28.757Z,26.10
2017-09-05T13:21:57.158Z,26.70
2017-09-05T13:24:24.811Z,26.70
2017-09-05T13:26:52.428Z,27.30
2017-09-05T13:29:20.514Z,27.50
2017-09-05T13:31:48.125Z,27.70
2017-09-05T13:34:15.735Z,27.50
2017-09-05T13:36:43.713Z,27.10
2017-09-05T13:39:11.343Z,26.80
2017-09-05T13:41:38.962Z,26.60
2017-09-05T13:44:07.011Z,26.60
2017-09-05T13:46:34.630Z,26.30
2017-09-05T13:49:02.250Z,26.40
2017-09-05T13:51:29.867Z,26.30
2017-09-05T13:53:57.470Z,25.80
2017-09-05T13:56:25.503Z,26.20
2017-09-05T13:58:53.105Z,26.30
2017-09-05T14:01:20.710Z,26.20
2017-09-05T14:03:48.330Z,25.90
2017-09-05T14:06:15.941Z,26.00
2017-09-05T14:08:44.017Z,25.90
2017-09-05T14:11:11.821Z,25.90
2017-09-05T14:13:39.414Z,25.80
2017-09-05T14:16:07.034Z,25.80
2017-09-05T14:18:34.634Z,25.80
2017-09-05T14:21:02.754Z,25.40
2017-09-05T14:23:30.352Z,25.20
2017-09-05T14:25:57.953Z,25.10
2017-09-05T14:28:25.702Z,25.30
2017-09-05T14:30:53.338Z,25.40
2017-09-05T14:33:21.262Z,25.50
2017-09-05T14:35:48.861Z,25.60
2017-09-05T14:38:16.462Z,25.40
2017-09-05T14:40:44.100Z,25.10
2017-09-05T14:43:11.700Z,25.20
2017-09-05T14:45:39.670Z,25.50
2017-09-05T14:48:07.273Z,25.60
2017-09-05T14:50:34.869Z,25.60
2017-09-05T14:53:02.917Z,25.60
2017-09-05T14:55:30.526Z,25.70
2017-09-05T14:57:58.587Z,25.60
2017-09-05T15:00:26.191Z,25.60
2017-09-05T15:02:53.790Z,25.30
2017-09-05T15:05:21.398Z,25.10
2017-09-05T15:07:48.994Z,25.00
2017-09-05T15:10:16.903Z,25.00
2017-09-05T15:12:44.504Z,24.80
2017-09-05T15:15:12.135Z,24.70
2017-09-05T15:17:39.865Z,24.50
2017-09-05T15:20:07.476Z,24.40
2017-09-05T15:22:35.428Z,24.50
2017-09-05T15:25:03.095Z,24.30
2017-09-05T15:27:31.121Z,24.50
2017-09-05T15:29:58.818Z,24.40
2017-09-05T15:32:26.494Z,24.40
2017-09-05T15:34:55.789Z,24.40
2017-09-05T15:37:23.399Z,24.40
2017-09-05T15:39:51.097Z,24.30
2017-09-05T15:42:18.774Z,24.30
2017-09-05T15:44:46.394Z,24.20
2017-09-05T15:47:14.287Z,24.20
2017-09-05T15:49:41.908Z,24.30
2017-09-05T15:52:09.538Z,24.30
2017-09-05T15:54:37.163Z,24.40
2017-09-05T15:57:04.769Z,24.50
2017-09-05T15:59:32.806Z,24.50
2017-09-05T16:02:00.621Z,24.60
2017-09-05T16:04:28.254Z,24.50
2017-09-05T16:06:55.922Z,24.30
2017-09-05T16:09:23.532Z,24.40
2017-09-05T16:11:51.447Z,24.60
2017-09-05T16:14:19.127Z,24.60
2017-09-05T16:16:46.782Z,24.50
2017-09-05T16:19:16.686Z,24.50
2017-09-05T16:21:44.333Z,24.50
2017-09-05T16:24:11.944Z,24.60
2017-09-05T16:26:39.578Z,24.70
2017-09-05T16:29:07.184Z,24.70
2017-09-05T16:31:35.070Z,24.60
2017-09-05T16:34:02.678Z,24.50
2017-09-05T16:36:30.398Z,24.40
2017-09-05T16:38:58.375Z,24.30
2017-09-05T16:41:25.990Z,24.20
2017-09-05T16:43:53.624Z,24.10
2017-09-05T16:46:21.797Z,24.00
2017-09-05T16:48:49.408Z,24.00
2017-09-05T16:51:17.018Z,23.90
2017-09-05T16:53:44.624Z,23.90
2017-09-05T16:56:12.242Z,23.80
2017-09-05T16:58:39.851Z,23.80
2017-09-05T17:01:07.843Z,23.90
2017-09-05T17:03:35.447Z,23.90
2017-09-05T17:06:03.161Z,23.90
2017-09-05T17:08:30.828Z,23.90
2017-09-05T17:10:59.099Z,23.90
2017-09-05T17:13:27.136Z,24.00
2017-09-05T17:15:54.831Z,24.00
2017-09-05T17:18:22.494Z,24.00
2017-09-05T17:20:50.453Z,23.80
2017-09-05T17:23:18.938Z,23.70
2017-09-05T17:25:46.550Z,23.60
2017-09-05T17:28:14.497Z,23.60
2017-09-05T17:30:42.162Z,23.70
2017-09-05T17:33:09.861Z,23.60
2017-09-05T17:35:37.559Z,23.60
2017-09-05T17:38:05.626Z,23.50
2017-09-05T17:40:33.240Z,23.40
2017-09-05T17:43:00.890Z,23.20
2017-09-05T17:45:28.526Z,23.10
2017-09-05T17:47:56.926Z,22.90
2017-09-05T17:50:25.063Z,22.80
2017-09-05T17:52:52.671Z,22.80
2017-09-05T17:55:20.285Z,22.70
2017-09-05T17:57:47.946Z,22.60
2017-09-05T18:00:15.589Z,22.60
2017-09-05T18:02:43.614Z,22.50
2017-09-05T18:05:11.218Z,22.50
2017-09-05T18:07:38.838Z,22.50
2017-09-05T18:10:06.467Z,22.40
2017-09-05T18:12:34.083Z,22.40
2017-09-05T18:15:02.496Z,22.30
2017-09-05T18:17:30.181Z,22.30
2017-09-05T18:19:58.551Z,22.20
2017-09-05T18:22:26.188Z,22.10
2017-09-05T18:24:54.638Z,22.10
2017-09-05T18:27:22.609Z,22.10
2017-09-05T18:29:50.249Z,22.10
2017-09-05T18:32:17.892Z,22.10
2017-09-05T18:34:46.291Z,22.20
2017-09-05T18:37:13.896Z,22.10
2017-09-05T18:39:42.016Z,22.10
2017-09-05T18:42:10.358Z,22.00
2017-09-05T18:44:37.990Z,21.90
2017-09-05T18:47:05.649Z,21.90
2017-09-05T18:49:34.147Z,21.90
2017-09-05T18:52:02.292Z,21.80
2017-09-05T18:54:29.982Z,21.80
2017-09-05T18:56:57.640Z,21.80
2017-09-05T18:59:25.619Z,21.70
2017-09-05T19:01:53.304Z,21.60
2017-09-05T19:04:20.930Z,21.60
2017-09-05T19:06:48.937Z,21.60
2017-09-05T19:09:16.571Z,21.60
2017-09-05T19:11:44.191Z,21.60
2017-09-05T19:14:11.843Z,21.60
2017-09-05T19:16:39.534Z,21.60
2017-09-05T19:19:07.608Z,21.60
2017-09-05T19:21:35.278Z,21.60
2017-09-05T19:24:02.996Z,21.60
2017-09-05T19:26:30.674Z,21.50
2017-09-05T19:28:58.369Z,21.40
2017-09-05T19:31:26.380Z,21.50
2017-09-05T19:33:54.688Z,21.40
2017-09-05T19:36:22.380Z,21.40
2017-09-05T19:38:50.232Z,21.40
2017-09-05T19:41:17.853Z,21.40
2017-09-05T19:43:45.926Z,21.40
2017-09-05T19:46:14.406Z,21.50
2017-09-05T19:48:42.228Z,21.40
2017-09-05T19:51:10.282Z,21.40
2017-09-05T19:53:38.008Z,21.40
2017-09-05T19:56:05.637Z,21.40
2017-09-05T19:58:33.333Z,21.40
2017-09-05T20:01:00.983Z,21.40
2017-09-05T20:03:28.963Z,21.40
2017-09-05T20:05:56.585Z,21.40
2017-09-05T20:08:24.216Z,21.40
2017-09-05T20:10:51.872Z,21.30
2017-09-05T20:13:19.497Z,21.40
2017-09-05T20:15:47.495Z,21.30
2017-09-05T20:18:15.202Z,21.30
2017-09-05T20:20:42.806Z,21.30
2017-09-05T20:23:11.368Z,21.30
2017-09-05T20:25:38.990Z,21.30
2017-09-05T20:28:06.618Z,21.30
2017-09-05T20:30:34.532Z,21.30
2017-09-05T20:33:02.137Z,21.20
2017-09-05T20:35:30.091Z,21.20
2017-09-05T20:37:57.745Z,21.20
2017-09-05T20:40:25.372Z,21.20
2017-09-05T20:42:52.996Z,21.10
2017-09-05T20:45:20.624Z,21.10
2017-09-05T20:47:48.594Z,21.10
2017-09-05T20:50:16.198Z,21.00
2017-09-05T20:52:43.799Z,21.00
2017-09-05T20:55:11.783Z,21.00
2017-09-05T20:57:39.399Z,21.00
2017-09-05T21:00:07.375Z,21.10
2017-09-05T21:02:35.011Z,21.00
2017-09-05T21:05:02.640Z,21.00
2017-09-05T21:07:30.267Z,20.90
2017-09-05T21:09:57.934Z,20.90
2017-09-05T21:12:25.539Z,20.90
2017-09-05T21:14:53.163Z,21.00
2017-09-05T21:17:21.734Z,20.90
2017-09-05T21:19:49.404Z,20.80
2017-09-05T21:22:17.349Z,20.80
2017-09-05T21:24:44.968Z,20.70
2017-09-05T21:27:12.678Z,20.60
2017-09-05T21:29:40.323Z,20.60
2017-09-05T21:32:07.941Z,20.60
2017-09-05T21:34:36.013Z,20.40
2017-09-05T21:37:03.655Z,20.40
2017-09-05T21:39:31.268Z,20.40
2017-09-05T21:41:58.900Z,20.30
2017-09-05T21:44:26.511Z,20.30
2017-09-05T21:46:54.430Z,20.20
2017-09-05T21:49:22.043Z,20.20
2017-09-05T21:51:49.715Z,20.20
2017-09-05T21:54:17.374Z,20.20
2017-09-05T21:56:44.987Z,20.20
2017-09-05T21:59:13.640Z,20.30
2017-09-05T22:01:41.263Z,20.30
2017-09-05T22:04:08.863Z,20.30
2017-09-05T22:06:36.749Z,20.20
2017-09-05T22:09:04.431Z,20.10
2017-09-05T22:11:32.088Z,20.20
2017-09-05T22:14:05.500Z,20.20
2017-09-05T22:16:38.654Z,20.20
2017-09-05T22:19:12.131Z,20.20
2017-09-05T22:21:39.738Z,20.10
2017-09-05T22:24:07.342Z,20.20
2017-09-05T22:26:40.686Z,20.20
2017-09-05T22:29:10.060Z,20.20
